Time;durP1;ratioP1;P1;durP2;ratioP2;P2;SDS_P1;SDS_P2;PMS_P1;PMS_P2;Temp;Humidity;BMP_temperature;BMP_pressure;BME280_temperature;BME280_humidity;BME280_pressure;Samples;Min_cycle;Max_cycle;Signal;HPM_P1;HPM_P2
2023/05/16 00:01:31;;;;;;;18.13;3.17;;;8.70;99.90;;;;;;5125994;27;20118;-83
2023/05/16 00:03:57;;;;;;;29.77;3.92;;;9.30;99.90;;;;;;5128495;27;20042;-83
2023/05/16 00:06:22;;;;;;;18.17;3.63;;;9.00;99.90;;;;;;5129893;27;20043;-83
2023/05/16 00:08:48;;;;;;;24.02;3.38;;;8.90;99.90;;;;;;5128716;27;20095;-83
2023/05/16 00:11:16;;;;;;;22.73;2.92;;;8.70;99.90;;;;;;5131118;27;20038;-82
2023/05/16 00:13:41;;;;;;;26.10;4.40;;;8.60;99.90;;;;;;5130480;27;20067;-83
2023/05/16 00:16:07;;;;;;;15.90;2.75;;;8.70;99.90;;;;;;5109357;27;20043;-83
2023/05/16 00:18:36;;;;;;;15.98;2.65;;;8.90;99.90;;;;;;5126943;27;20038;-83
2023/05/16 00:21:03;;;;;;;18.25;3.38;;;8.60;99.90;;;;;;5126561;27;20118;-84
2023/05/16 00:23:29;;;;;;;18.70;3.63;;;8.90;99.90;;;;;;5106502;28;20043;-83
2023/05/16 00:25:55;;;;;;;20.95;3.00;;;8.70;99.90;;;;;;5101503;27;20035;-83
2023/05/16 00:28:21;;;;;;;23.65;2.95;;;8.60;99.90;;;;;;5126097;27;20118;-84
2023/05/16 00:30:47;;;;;;;19.17;2.97;;;8.60;99.90;;;;;;5126708;27;20095;-83
2023/05/16 00:33:13;;;;;;;20.67;3.50;;;8.50;99.90;;;;;;5109774;27;20118;-84
2023/05/16 00:35:38;;;;;;;19.85;2.65;;;9.00;99.90;;;;;;5122745;27;20035;-83
2023/05/16 00:38:05;;;;;;;20.42;2.70;;;8.50;99.90;;;;;;5108348;27;20563;-83
2023/05/16 00:40:31;;;;;;;23.67;3.22;;;8.80;99.90;;;;;;5116982;27;20350;-83
2023/05/16 00:42:57;;;;;;;19.73;2.97;;;8.40;99.90;;;;;;5105812;27;20031;-83
2023/05/16 00:45:23;;;;;;;19.63;2.90;;;8.40;99.90;;;;;;5123487;27;20043;-83
2023/05/16 00:47:50;;;;;;;16.60;2.53;;;8.30;99.90;;;;;;5107096;27;20497;-83
2023/05/16 00:50:16;;;;;;;18.50;2.67;;;8.60;99.90;;;;;;5108112;27;20130;-83
2023/05/16 00:52:42;;;;;;;22.13;2.83;;;8.30;99.90;;;;;;5109743;27;20519;-83
2023/05/16 00:55:09;;;;;;;29.50;4.18;;;8.30;99.90;;;;;;5106294;28;20418;-84
2023/05/16 00:57:37;;;;;;;18.30;3.00;;;8.80;99.90;;;;;;5106543;27;20087;-83
2023/05/16 01:00:05;;;;;;;19.08;2.55;;;8.50;99.90;;;;;;5123284;27;20059;-84
2023/05/16 01:02:33;;;;;;;20.58;3.10;;;8.20;99.90;;;;;;5086862;28;20097;-83
2023/05/16 01:04:59;;;;;;;19.50;3.35;;;8.30;99.90;;;;;;5101071;27;20045;-84
2023/05/16 01:07:25;;;;;;;17.40;2.65;;;8.30;99.90;;;;;;5125639;27;20177;-83
2023/05/16 01:09:51;;;;;;;16.92;3.42;;;8.30;99.90;;;;;;5123749;27;20774;-83
2023/05/16 01:12:28;;;;;;;22.85;2.88;;;9.10;99.90;;;;;;5101904;28;20093;-83
2023/05/16 01:15:05;;;;;;;18.40;3.17;;;8.40;99.90;;;;;;5106422;28;20052;-83
2023/05/16 01:17:46;;;;;;;17.90;2.70;;;8.40;99.90;;;;;;5113070;28;20132;-83
2023/05/16 01:20:31;;;;;;;16.85;2.60;;;8.40;99.90;;;;;;5108989;28;20502;-83
2023/05/16 01:23:04;;;;;;;15.63;2.63;;;8.30;99.90;;;;;;5106471;28;20501;-83
2023/05/16 01:25:44;;;;;;;22.90;3.22;;;8.40;99.90;;;;;;5122058;28;20058;-83
2023/05/16 01:28:12;;;;;;;24.73;3.38;;;8.30;99.90;;;;;;5105102;28;20490;-83
2023/05/16 01:30:40;;;;;;;18.38;3.25;;;8.30;99.90;;;;;;5109357;28;20039;-83
2023/05/16 01:33:06;;;;;;;21.88;3.63;;;8.30;99.90;;;;;;5108886;28;20582;-83
2023/05/16 01:35:34;;;;;;;19.83;2.33;;;8.40;99.90;;;;;;5108720;28;20043;-83
2023/05/16 01:38:10;;;;;;;17.50;3.10;;;8.20;99.90;;;;;;5125912;28;20053;-84
2023/05/16 01:40:52;;;;;;;18.80;2.53;;;8.30;99.90;;;;;;5125488;28;20050;-83
2023/05/16 01:43:28;;;;;;;19.02;3.03;;;8.20;99.90;;;;;;5105579;28;20078;-83
2023/05/16 01:46:00;;;;;;;15.88;3.28;;;8.30;99.90;;;;;;5101895;28;20043;-83
2023/05/16 01:48:33;;;;;;;18.48;2.70;;;8.30;99.90;;;;;;5106582;28;20107;-83
2023/05/16 01:51:00;;;;;;;19.93;2.67;;;8.20;99.90;;;;;;5105225;28;20039;-83
2023/05/16 01:53:28;;;;;;;21.30;2.85;;;8.10;99.90;;;;;;5122471;28;20490;-83
2023/05/16 01:55:58;;;;;;;13.88;2.88;;;8.30;99.90;;;;;;5119739;28;20384;-83
2023/05/16 01:58:29;;;;;;;16.90;2.53;;;8.30;99.90;;;;;;5114055;28;20482;-84
2023/05/16 02:01:01;;;;;;;19.90;3.50;;;8.30;99.90;;;;;;5101361;28;20192;-83
2023/05/16 02:03:27;;;;;;;22.20;3.07;;;8.00;99.90;;;;;;5106539;28;20054;-83
2023/05/16 02:05:52;;;;;;;20.63;2.92;;;8.00;99.90;;;;;;5125266;28;20031;-83
2023/05/16 02:08:18;;;;;;;25.52;3.13;;;8.00;99.90;;;;;;5108915;28;20141;-84
2023/05/16 02:10:44;;;;;;;18.27;3.00;;;8.00;99.90;;;;;;5108691;28;20114;-83
2023/05/16 02:13:10;;;;;;;21.67;3.13;;;7.90;99.90;;;;;;5109860;28;20071;-83
2023/05/16 02:15:35;;;;;;;20.10;2.55;;;7.90;99.90;;;;;;5108085;27;20047;-84
2023/05/16 02:18:01;;;;;;;17.77;3.60;;;8.60;99.90;;;;;;5112639;27;20054;-83
2023/05/16 02:20:26;;;;;;;21.48;2.88;;;7.80;99.90;;;;;;5111260;27;20135;-83
2023/05/16 02:22:52;;;;;;;18.35;2.17;;;7.90;99.90;;;;;;5112918;27;20609;-83
2023/05/16 02:25:18;;;;;;;20.75;2.72;;;8.70;99.90;;;;;;5112867;27;20134;-83
2023/05/16 02:27:43;;;;;;;18.75;2.88;;;7.80;99.90;;;;;;5112515;27;20839;-84
2023/05/16 02:30:12;;;;;;;18.30;3.13;;;7.90;99.90;;;;;;5113032;27;20099;-83
2023/05/16 02:32:39;;;;;;;19.63;3.58;;;7.90;99.90;;;;;;5111980;27;20053;-83
2023/05/16 02:35:06;;;;;;;19.42;2.50;;;7.80;99.90;;;;;;5109532;27;20048;-83
2023/05/16 02:37:32;;;;;;;18.00;2.85;;;7.80;99.90;;;;;;5101977;27;20049;-83
2023/05/16 02:39:57;;;;;;;18.48;3.67;;;7.80;99.90;;;;;;5112701;27;20039;-83
2023/05/16 02:42:26;;;;;;;17.95;2.90;;;7.80;99.90;;;;;;5120468;27;20028;-83
2023/05/16 02:44:52;;;;;;;18.17;3.17;;;7.80;99.90;;;;;;5128735;27;20039;-83
2023/05/16 02:47:17;;;;;;;18.98;3.28;;;7.70;99.90;;;;;;5103957;27;20054;-83
2023/05/16 02:49:43;;;;;;;20.88;2.97;;;8.60;99.90;;;;;;5114172;27;20104;-84
2023/05/16 02:52:09;;;;;;;20.08;2.97;;;7.70;99.90;;;;;;5121527;27;20046;-83
2023/05/16 02:54:35;;;;;;;20.38;3.20;;;7.70;99.90;;;;;;5107001;27;20433;-83
2023/05/16 02:57:00;;;;;;;19.67;2.92;;;8.10;99.90;;;;;;5125003;27;20036;-83
2023/05/16 02:59:26;;;;;;;14.30;2.88;;;8.10;99.90;;;;;;5107487;28;20039;-84
2023/05/16 03:01:52;;;;;;;19.90;3.22;;;7.70;99.90;;;;;;5104523;27;20055;-83
2023/05/16 03:04:20;;;;;;;17.08;2.88;;;7.70;99.90;;;;;;5102554;27;20231;-83
2023/05/16 03:06:46;;;;;;;16.60;2.70;;;8.00;99.90;;;;;;5111411;27;20031;-83
2023/05/16 03:09:12;;;;;;;17.75;3.55;;;7.90;99.90;;;;;;5111652;27;20158;-83
2023/05/16 03:11:37;;;;;;;18.23;3.15;;;7.90;99.90;;;;;;5110444;27;20050;-84
2023/05/16 03:14:03;;;;;;;21.30;3.13;;;7.70;99.90;;;;;;5112011;27;20035;-83
2023/05/16 03:16:29;;;;;;;19.45;3.20;;;7.90;99.90;;;;;;5106875;28;20059;-83
2023/05/16 03:18:55;;;;;;;21.90;3.92;;;8.40;99.90;;;;;;5124130;27;20035;-84
2023/05/16 03:21:21;;;;;;;22.27;3.38;;;8.30;99.90;;;;;;5103880;27;20040;-83
2023/05/16 03:23:47;;;;;;;19.98;3.53;;;8.20;99.90;;;;;;5110659;27;20047;-83
2023/05/16 03:26:12;;;;;;;22.65;3.63;;;8.30;99.90;;;;;;5128273;27;20054;-83
2023/05/16 03:28:38;;;;;;;24.98;3.35;;;7.60;99.90;;;;;;5109611;27;20054;-83
2023/05/16 03:31:04;;;;;;;24.33;3.05;;;7.60;99.90;;;;;;5127502;27;20043;-83
2023/05/16 03:33:29;;;;;;;17.25;2.85;;;7.50;99.90;;;;;;5110592;27;20060;-83
2023/05/16 03:35:55;;;;;;;19.40;3.30;;;7.60;99.90;;;;;;5110536;27;20126;-83
2023/05/16 03:38:21;;;;;;;24.00;2.88;;;7.60;99.90;;;;;;5110326;27;20074;-83
2023/05/16 03:40:46;;;;;;;17.23;2.53;;;7.70;99.90;;;;;;5111061;27;20503;-83
2023/05/16 03:43:12;;;;;;;17.45;2.60;;;7.60;99.90;;;;;;5106891;27;20066;-83
2023/05/16 03:45:38;;;;;;;15.65;2.72;;;7.50;99.90;;;;;;5123947;27;20048;-84
2023/05/16 03:48:04;;;;;;;14.60;2.70;;;7.60;99.90;;;;;;5123951;27;20035;-83
2023/05/16 03:50:29;;;;;;;18.05;2.75;;;7.50;99.90;;;;;;5099366;28;20044;-84
2023/05/16 03:52:55;;;;;;;18.95;2.67;;;7.50;99.90;;;;;;5105770;28;20039;-83
2023/05/16 03:55:21;;;;;;;15.98;2.70;;;7.80;99.90;;;;;;5103090;27;20039;-83
2023/05/16 03:57:48;;;;;;;28.00;3.45;;;7.50;99.90;;;;;;5107991;28;20067;-83
2023/05/16 04:00:15;;;;;;;14.32;2.38;;;7.60;99.90;;;;;;5102776;27;20043;-83
2023/05/16 04:02:41;;;;;;;15.38;2.15;;;7.50;99.90;;;;;;5107788;27;20035;-83
2023/05/16 04:05:08;;;;;;;20.48;3.28;;;7.50;99.90;;;;;;5091365;28;20078;-83
2023/05/16 04:07:34;;;;;;;18.73;3.15;;;7.50;99.90;;;;;;5093345;28;20035;-83
2023/05/16 04:09:59;;;;;;;19.80;2.60;;;7.80;99.90;;;;;;5105525;27;20046;-83
2023/05/16 04:12:25;;;;;;;14.90;2.38;;;7.60;99.90;;;;;;5109859;27;20049;-83
2023/05/16 04:14:51;;;;;;;23.98;3.05;;;7.60;99.90;;;;;;5107256;27;20184;-83
2023/05/16 04:17:16;;;;;;;21.52;2.95;;;8.20;99.90;;;;;;5100707;27;20478;-83
2023/05/16 04:19:42;;;;;;;21.15;2.50;;;8.20;99.90;;;;;;5096991;27;20055;-83
2023/05/16 04:22:08;;;;;;;17.80;2.80;;;8.00;99.90;;;;;;5110612;27;20039;-83
2023/05/16 04:24:33;;;;;;;17.25;2.35;;;8.50;99.90;;;;;;5108748;27;20046;-83
2023/05/16 04:27:00;;;;;;;17.77;2.30;;;7.70;99.90;;;;;;5111984;27;20223;-83
2023/05/16 04:29:26;;;;;;;14.27;2.13;;;7.70;99.90;;;;;;5117216;27;20066;-83
2023/05/16 04:31:51;;;;;;;21.90;2.53;;;8.30;99.90;;;;;;5107585;27;20155;-83
2023/05/16 04:34:17;;;;;;;14.80;2.90;;;7.70;99.90;;;;;;5117286;27;20040;-83
2023/05/16 04:36:43;;;;;;;18.58;3.28;;;8.50;99.90;;;;;;5095353;27;20027;-83
2023/05/16 04:39:09;;;;;;;18.30;3.08;;;7.80;99.90;;;;;;5109477;27;20050;-83
2023/05/16 04:41:35;;;;;;;20.73;3.05;;;7.90;99.90;;;;;;5108317;27;20058;-83
2023/05/16 04:44:03;;;;;;;19.63;2.95;;;8.00;99.90;;;;;;5119645;27;20390;-83
2023/05/16 04:46:29;;;;;;;14.65;2.50;;;8.10;99.90;;;;;;5122781;27;20198;-84
2023/05/16 04:48:55;;;;;;;22.27;2.88;;;8.20;99.90;;;;;;5102105;27;20118;-83
2023/05/16 04:51:20;;;;;;;20.13;3.08;;;8.20;99.90;;;;;;5108131;27;20130;-83
2023/05/16 04:53:46;;;;;;;15.57;2.80;;;8.30;99.90;;;;;;5118400;27;20055;-83
2023/05/16 04:56:12;;;;;;;16.35;2.53;;;8.30;99.90;;;;;;5117137;27;20131;-83
2023/05/16 04:58:38;;;;;;;20.63;2.53;;;8.40;99.90;;;;;;5118481;27;20090;-83
2023/05/16 05:01:04;;;;;;;13.57;1.98;;;8.40;99.90;;;;;;5122067;27;20035;-83
2023/05/16 05:03:29;;;;;;;12.20;2.25;;;8.50;99.90;;;;;;5097244;27;20126;-83
2023/05/16 05:05:55;;;;;;;15.25;2.00;;;8.60;99.90;;;;;;5102667;27;20074;-83
2023/05/16 05:08:21;;;;;;;18.45;2.10;;;8.60;99.90;;;;;;5106982;28;20071;-83
2023/05/16 05:10:47;;;;;;;18.75;2.42;;;8.60;99.90;;;;;;5104802;28;20035;-83
2023/05/16 05:13:13;;;;;;;21.35;2.25;;;8.70;99.90;;;;;;5105306;28;20050;-83
2023/05/16 05:15:39;;;;;;;16.08;2.38;;;8.80;99.90;;;;;;5107891;28;20054;-84
2023/05/16 05:18:05;;;;;;;15.38;2.45;;;9.30;99.90;;;;;;5104298;28;20047;-84
2023/05/16 05:20:30;;;;;;;16.08;2.40;;;9.00;99.90;;;;;;5103076;28;20039;-84
2023/05/16 05:22:56;;;;;;;18.35;2.55;;;9.10;99.90;;;;;;5104907;28;20489;-83
2023/05/16 05:25:22;;;;;;;13.57;2.15;;;9.00;99.90;;;;;;5124636;28;20338;-84
2023/05/16 05:27:48;;;;;;;16.77;1.92;;;9.00;99.90;;;;;;5119612;28;20076;-83
2023/05/16 05:30:13;;;;;;;16.48;3.03;;;9.30;99.90;;;;;;5108425;28;20511;-83
2023/05/16 05:32:39;;;;;;;16.17;2.10;;;8.90;99.90;;;;;;5101313;28;20039;-83
2023/05/16 05:35:06;;;;;;;11.98;2.00;;;8.90;99.90;;;;;;5109312;28;20043;-84
2023/05/16 05:37:32;;;;;;;24.17;2.38;;;9.00;99.90;;;;;;5100990;28;20044;-83
2023/05/16 05:39:58;;;;;;;12.35;1.98;;;9.70;99.90;;;;;;5115855;28;20514;-84
2023/05/16 05:42:24;;;;;;;14.90;1.73;;;9.30;99.90;;;;;;5100411;28;20047;-84
2023/05/16 05:44:50;;;;;;;17.38;2.08;;;9.40;99.90;;;;;;5112484;28;20035;-83
2023/05/16 05:47:16;;;;;;;17.65;2.10;;;9.70;99.90;;;;;;5125663;28;20055;-84
2023/05/16 05:49:42;;;;;;;16.00;2.45;;;9.70;99.90;;;;;;5114205;28;20406;-84
2023/05/16 05:52:07;;;;;;;11.80;2.28;;;9.80;99.90;;;;;;5119879;27;20043;-84
2023/05/16 05:54:33;;;;;;;18.98;2.35;;;10.00;99.90;;;;;;5095641;27;20042;-83
2023/05/16 05:56:59;;;;;;;12.07;1.88;;;10.00;99.90;;;;;;5107353;27;20034;-83
2023/05/16 05:59:25;;;;;;;18.45;2.00;;;10.10;99.90;;;;;;5109993;27;20126;-83
2023/05/16 06:01:51;;;;;;;12.77;2.00;;;10.20;99.90;;;;;;5105714;27;20401;-83
2023/05/16 06:04:18;;;;;;;12.80;2.00;;;10.30;99.90;;;;;;5110159;27;20057;-84
2023/05/16 06:06:44;;;;;;;13.02;1.83;;;10.30;99.90;;;;;;5111008;27;20118;-83
2023/05/16 06:09:10;;;;;;;20.73;2.95;;;10.80;99.90;;;;;;5112365;27;20187;-83
2023/05/16 06:11:35;;;;;;;12.18;1.95;;;10.40;99.90;;;;;;5129605;27;20047;-83
2023/05/16 06:14:01;;;;;;;10.23;1.73;;;10.50;99.90;;;;;;5109987;27;20486;-84
2023/05/16 06:16:27;;;;;;;12.40;2.10;;;10.60;99.90;;;;;;5125500;27;20055;-84
2023/05/16 06:18:53;;;;;;;11.50;1.80;;;10.70;99.90;;;;;;5129665;27;20054;-84
2023/05/16 06:21:18;;;;;;;13.63;1.88;;;10.70;99.90;;;;;;5111160;27;20062;-84
2023/05/16 06:23:44;;;;;;;14.57;2.08;;;10.80;99.90;;;;;;5124895;27;20028;-83
2023/05/16 06:26:10;;;;;;;11.70;1.83;;;10.80;99.90;;;;;;5107867;27;20047;-83
2023/05/16 06:28:35;;;;;;;13.43;2.03;;;10.90;99.90;;;;;;5109965;27;20042;-82
2023/05/16 06:31:01;;;;;;;15.38;2.00;;;11.10;99.90;;;;;;5110673;27;20089;-83
2023/05/16 06:33:27;;;;;;;8.10;1.40;;;11.20;99.90;;;;;;5124410;27;20490;-83
2023/05/16 06:35:52;;;;;;;13.73;1.92;;;11.60;99.90;;;;;;5102832;28;20143;-83
2023/05/16 06:38:18;;;;;;;17.83;1.85;;;11.20;99.90;;;;;;5124790;27;20040;-83
2023/05/16 06:40:44;;;;;;;14.60;2.00;;;11.00;99.90;;;;;;5111298;27;20078;-84
2023/05/16 06:43:10;;;;;;;7.93;1.50;;;11.60;99.90;;;;;;5108355;27;20043;-84
2023/05/16 06:45:37;;;;;;;13.40;3.20;;;10.70;99.90;;;;;;5103327;27;20520;-82
2023/05/16 06:48:03;;;;;;;11.80;1.95;;;10.70;99.90;;;;;;5109298;27;20118;-83
2023/05/16 06:50:29;;;;;;;10.48;1.50;;;10.90;99.90;;;;;;5102966;27;20042;-83
2023/05/16 06:52:54;;;;;;;12.80;1.75;;;11.10;99.90;;;;;;5098593;27;20047;-83
2023/05/16 06:55:20;;;;;;;15.77;2.45;;;11.20;99.90;;;;;;5110189;27;20038;-83
2023/05/16 06:57:46;;;;;;;18.90;1.88;;;11.10;99.90;;;;;;5105221;27;20052;-84
2023/05/16 07:00:13;;;;;;;6.97;1.35;;;10.90;99.90;;;;;;5093985;28;20040;-83
2023/05/16 07:02:39;;;;;;;8.85;1.52;;;10.70;99.90;;;;;;5106826;27;20070;-83
2023/05/16 07:05:06;;;;;;;8.05;2.17;;;10.70;99.90;;;;;;5097594;28;20180;-83
2023/05/16 07:07:31;;;;;;;12.30;2.00;;;10.60;99.90;;;;;;5107188;27;20036;-84
2023/05/16 07:09:57;;;;;;;10.63;1.92;;;10.70;99.90;;;;;;5097966;28;20044;-84
2023/05/16 07:12:23;;;;;;;10.02;1.73;;;10.90;99.90;;;;;;5094503;28;20118;-84
2023/05/16 07:14:49;;;;;;;9.50;1.50;;;11.00;99.90;;;;;;5120998;27;20801;-84
2023/05/16 07:17:15;;;;;;;10.05;1.50;;;11.20;99.90;;;;;;5119680;27;20055;-83
2023/05/16 07:19:41;;;;;;;9.70;2.15;;;11.30;99.90;;;;;;5121248;27;20048;-84
2023/05/16 07:22:06;;;;;;;10.05;1.83;;;11.70;99.90;;;;;;5128234;27;20095;-84
2023/05/16 07:24:32;;;;;;;15.07;1.98;;;11.70;99.90;;;;;;5116586;27;20039;-84
2023/05/16 07:26:58;;;;;;;14.55;2.25;;;11.90;99.90;;;;;;5110708;27;20082;-85
2023/05/16 07:29:24;;;;;;;13.07;2.00;;;11.90;99.90;;;;;;5120069;27;20090;-84
2023/05/16 07:31:50;;;;;;;14.30;2.15;;;11.80;99.90;;;;;;5109787;27;20053;-84
2023/05/16 07:34:16;;;;;;;9.88;1.95;;;11.40;99.90;;;;;;5127270;27;20514;-84
2023/05/16 07:36:41;;;;;;;16.85;1.77;;;11.20;99.90;;;;;;5110382;27;20047;-84
2023/05/16 07:39:07;;;;;;;17.67;2.00;;;11.20;99.90;;;;;;5128111;27;20394;-84
2023/05/16 07:41:32;;;;;;;11.93;1.83;;;11.30;99.90;;;;;;5110619;27;20067;-84
2023/05/16 07:43:58;;;;;;;10.18;1.83;;;11.60;99.90;;;;;;5110412;27;20058;-84
2023/05/16 07:46:24;;;;;;;15.27;2.25;;;11.70;99.90;;;;;;5110193;27;20039;-83
2023/05/16 07:48:50;;;;;;;13.07;1.80;;;11.90;99.90;;;;;;5111128;27;20043;-84
2023/05/16 07:51:16;;;;;;;13.68;2.70;;;12.10;99.90;;;;;;5126725;27;20050;-84
2023/05/16 07:53:42;;;;;;;17.58;2.20;;;12.30;99.90;;;;;;5124890;27;20066;-84
2023/05/16 07:56:07;;;;;;;16.67;2.08;;;12.20;99.90;;;;;;5140280;27;20078;-83
2023/05/16 07:58:33;;;;;;;14.23;2.10;;;12.20;99.90;;;;;;5123745;27;20166;-83
2023/05/16 08:00:59;;;;;;;13.50;2.22;;;12.20;99.90;;;;;;5110034;27;20054;-84
2023/05/16 08:03:25;;;;;;;15.32;2.42;;;12.20;99.90;;;;;;5127200;27;20046;-83
2023/05/16 08:05:50;;;;;;;8.05;1.30;;;12.20;99.90;;;;;;5109678;27;20134;-84
2023/05/16 08:08:16;;;;;;;11.93;1.98;;;11.90;99.90;;;;;;5110125;27;20394;-84
2023/05/16 08:10:42;;;;;;;16.77;2.47;;;11.70;99.90;;;;;;5124060;27;20039;-84
2023/05/16 08:13:08;;;;;;;10.30;1.98;;;11.80;99.90;;;;;;5103403;28;20035;-84
2023/05/16 08:15:34;;;;;;;12.65;2.03;;;12.00;99.90;;;;;;5099060;28;20036;-83
2023/05/16 08:18:00;;;;;;;11.18;1.75;;;12.20;99.90;;;;;;5088254;28;20489;-83
2023/05/16 08:20:26;;;;;;;13.20;2.15;;;12.10;99.90;;;;;;5088119;28;20140;-83
2023/05/16 08:22:52;;;;;;;12.88;1.70;;;11.90;99.90;;;;;;5107260;28;20039;-84
2023/05/16 08:25:18;;;;;;;10.85;0.85;;;11.80;99.90;;;;;;5072857;28;20483;-83
2023/05/16 08:27:45;;;;;;;7.00;1.65;;;11.80;99.90;;;;;;5086377;28;20040;-83
2023/05/16 08:30:11;;;;;;;14.20;1.52;;;11.90;99.90;;;;;;5071938;28;20048;-84
2023/05/16 08:32:37;;;;;;;9.50;1.40;;;12.10;99.90;;;;;;5072286;28;20088;-84
2023/05/16 08:35:03;;;;;;;7.05;1.30;;;12.20;99.90;;;;;;5086125;28;20043;-84
2023/05/16 08:37:29;;;;;;;9.07;1.48;;;12.30;99.90;;;;;;5082150;28;20204;-84
2023/05/16 08:39:55;;;;;;;12.48;2.15;;;12.40;99.90;;;;;;5066296;28;20044;-84
2023/05/16 08:42:21;;;;;;;14.15;1.52;;;12.50;99.90;;;;;;5060475;28;20501;-83
2023/05/16 08:44:46;;;;;;;16.63;2.10;;;12.80;99.90;;;;;;5093680;27;20043;-83
2023/05/16 08:47:18;;;;;;;11.80;1.63;;;13.30;99.90;;;;;;5080358;28;20054;-83
2023/05/16 08:49:47;;;;;;;11.93;1.80;;;13.20;99.90;;;;;;5072006;28;20046;-83
2023/05/16 08:52:14;;;;;;;13.98;1.83;;;12.80;99.90;;;;;;5072019;28;20048;-83
2023/05/16 08:54:40;;;;;;;15.15;1.90;;;12.70;99.90;;;;;;5051243;28;20093;-83
2023/05/16 08:57:07;;;;;;;11.02;1.90;;;12.60;99.90;;;;;;5079587;28;20047;-83
2023/05/16 08:59:34;;;;;;;16.17;2.10;;;12.40;99.90;;;;;;5068358;28;20043;-83
2023/05/16 09:02:00;;;;;;;12.75;2.20;;;12.30;99.90;;;;;;5078642;27;20043;-83
2023/05/16 09:04:26;;;;;;;12.38;1.98;;;12.00;99.90;;;;;;5078845;28;20043;-83
2023/05/16 09:06:52;;;;;;;16.92;2.22;;;11.90;99.90;;;;;;5071812;28;20097;-83
2023/05/16 09:09:18;;;;;;;11.20;1.73;;;12.10;99.90;;;;;;5085300;28;20075;-83
2023/05/16 09:11:44;;;;;;;16.42;1.95;;;12.50;99.90;;;;;;5096574;28;20048;-83
2023/05/16 09:14:10;;;;;;;12.20;1.83;;;12.90;99.90;;;;;;5072791;28;20570;-83
2023/05/16 09:16:36;;;;;;;16.15;2.17;;;13.20;99.90;;;;;;5098888;27;20112;-83
2023/05/16 09:19:03;;;;;;;12.57;2.70;;;13.10;99.90;;;;;;5096150;28;20126;-83
2023/05/16 09:21:31;;;;;;;14.30;1.90;;;12.80;99.90;;;;;;5105902;27;20042;-82
2023/05/16 09:24:05;;;;;;;12.07;2.00;;;12.70;99.90;;;;;;5109049;28;20035;-83
2023/05/16 09:26:33;;;;;;;10.68;1.75;;;12.80;99.90;;;;;;5108765;27;20049;-83
2023/05/16 09:28:59;;;;;;;12.00;1.80;;;13.10;99.90;;;;;;5134621;27;20043;-83
2023/05/16 09:31:26;;;;;;;11.90;1.60;;;13.10;99.90;;;;;;5132354;27;20109;-83
2023/05/16 09:33:55;;;;;;;14.02;2.13;;;13.00;99.90;;;;;;5113502;27;20096;-83
2023/05/16 09:36:21;;;;;;;13.57;2.25;;;13.00;99.90;;;;;;5111335;27;20542;-83
2023/05/16 09:38:46;;;;;;;16.08;2.00;;;12.70;99.90;;;;;;5112884;27;20039;-86
2023/05/16 09:41:12;;;;;;;8.45;1.08;;;12.10;99.90;;;;;;5129821;27;20045;-86
2023/05/16 09:43:40;;;;;;;6.88;1.15;;;11.70;99.90;;;;;;5116435;27;20038;-84
2023/05/16 09:46:06;;;;;;;7.32;0.95;;;11.50;99.90;;;;;;5133117;27;20047;-85
2023/05/16 09:48:32;;;;;;;14.73;2.47;;;11.60;99.90;;;;;;5117321;27;20042;-86
2023/05/16 09:51:03;;;;;;;16.75;1.50;;;11.80;99.90;;;;;;5115567;27;20404;-86
2023/05/16 09:53:31;;;;;;;14.70;1.90;;;12.10;99.90;;;;;;5113751;27;20394;-86
2023/05/16 09:56:03;;;;;;;11.95;1.52;;;12.50;99.90;;;;;;5127668;27;20047;-85
2023/05/16 09:58:30;;;;;;;12.82;2.33;;;12.80;99.90;;;;;;5120985;27;20046;-85
2023/05/16 10:00:57;;;;;;;10.38;2.25;;;13.10;99.90;;;;;;5098714;27;20085;-85
2023/05/16 10:03:24;;;;;;;11.93;2.13;;;13.20;99.90;;;;;;5104889;27;20073;-85
2023/05/16 10:05:51;;;;;;;15.93;1.88;;;13.20;99.90;;;;;;5096521;27;20130;-86
2023/05/16 10:08:20;;;;;;;15.75;1.75;;;13.00;99.90;;;;;;5122950;27;20047;-86
2023/05/16 10:10:50;;;;;;;19.63;2.30;;;12.90;99.90;;;;;;5115860;27;20039;-85
2023/05/16 10:13:17;;;;;;;11.10;1.75;;;13.10;99.90;;;;;;5113000;27;20047;-85
2023/05/16 10:15:44;;;;;;;10.32;1.67;;;13.60;99.90;;;;;;5115422;27;20401;-85
2023/05/16 10:18:13;;;;;;;9.20;1.50;;;13.50;99.90;;;;;;5116633;27;20179;-86
2023/05/16 10:20:41;;;;;;;19.60;2.00;;;13.50;99.90;;;;;;5114810;27;20039;-86
2023/05/16 10:23:10;;;;;;;11.50;1.30;;;13.40;99.90;;;;;;5113965;27;20477;-85
2023/05/16 10:25:40;;;;;;;6.38;1.35;;;13.00;99.90;;;;;;5115651;27;20058;-84
2023/05/16 10:28:07;;;;;;;6.32;0.82;;;12.40;99.90;;;;;;5116117;27;20485;-86
2023/05/16 10:30:34;;;;;;;8.70;1.00;;;12.30;99.90;;;;;;5115718;27;20532;-85
2023/05/16 10:33:03;;;;;;;11.50;1.35;;;11.60;99.90;;;;;;5114801;27;20043;-85
2023/05/16 10:35:29;;;;;;;8.48;1.25;;;11.40;99.90;;;;;;5111644;27;20375;-85
2023/05/16 10:37:56;;;;;;;9.48;1.05;;;11.50;99.90;;;;;;5112235;27;20046;-87
2023/05/16 10:40:23;;;;;;;8.02;1.50;;;12.00;99.90;;;;;;5114622;27;20050;-85
2023/05/16 10:42:56;;;;;;;13.48;1.83;;;12.30;99.90;;;;;;5115636;27;20185;-85
2023/05/16 10:45:22;;;;;;;9.50;1.55;;;12.60;99.90;;;;;;5112265;27;20046;-85
2023/05/16 10:48:03;;;;;;;7.97;1.05;;;12.60;99.90;;;;;;5111365;27;20043;-85
2023/05/16 10:50:37;;;;;;;10.63;1.63;;;12.50;99.90;;;;;;5112560;27;20054;-85
2023/05/16 10:53:19;;;;;;;17.40;1.90;;;12.40;99.90;;;;;;5115919;27;20027;-85
2023/05/16 10:55:57;;;;;;;11.65;1.40;;;12.40;99.90;;;;;;5113753;27;20043;-85
2023/05/16 10:58:41;;;;;;;12.10;1.42;;;12.70;99.90;;;;;;5111910;27;20039;-85
2023/05/16 11:01:21;;;;;;;14.70;2.13;;;13.00;99.90;;;;;;5113280;27;20370;-84
2023/05/16 11:03:56;;;;;;;12.07;1.70;;;13.30;99.90;;;;;;5105316;27;20039;-85
2023/05/16 11:06:24;;;;;;;9.23;1.63;;;13.60;99.90;;;;;;5101500;27;20126;-85
2023/05/16 11:09:12;;;;;;;13.07;1.80;;;13.70;99.90;;;;;;5109045;27;20098;-85
2023/05/16 11:11:43;;;;;;;10.43;1.20;;;13.80;99.90;;;;;;5108919;27;20401;-85
2023/05/16 11:14:18;;;;;;;10.52;1.98;;;13.60;99.90;;;;;;5098781;27;20047;-85
2023/05/16 11:16:49;;;;;;;9.70;1.65;;;13.40;99.90;;;;;;5106556;27;20126;-86
2023/05/16 11:19:38;;;;;;;7.00;1.33;;;13.50;99.90;;;;;;5112017;27;20058;-86
2023/05/16 11:22:07;;;;;;;11.73;1.90;;;13.70;99.90;;;;;;5112762;27;20085;-86
2023/05/16 11:24:34;;;;;;;14.60;1.30;;;14.00;99.90;;;;;;5115004;27;20117;-86
2023/05/16 11:27:00;;;;;;;12.00;1.52;;;14.10;99.90;;;;;;5111890;27;20355;-85
2023/05/16 11:29:30;;;;;;;8.95;1.50;;;14.10;99.90;;;;;;5120602;27;20066;-85
2023/05/16 11:31:58;;;;;;;8.52;1.35;;;14.00;99.90;;;;;;5111270;27;20490;-85
2023/05/16 11:34:24;;;;;;;8.27;1.25;;;13.90;99.90;;;;;;5104997;27;20451;-85
2023/05/16 11:36:50;;;;;;;10.57;1.38;;;13.80;99.90;;;;;;5131119;27;20117;-85
2023/05/16 11:39:18;;;;;;;12.77;1.50;;;13.90;99.90;;;;;;5129288;27;20066;-84
2023/05/16 11:41:44;;;;;;;10.50;1.75;;;14.10;99.90;;;;;;5113761;27;20049;-85
2023/05/16 11:44:11;;;;;;;17.55;2.53;;;14.30;99.90;;;;;;5114028;27;20046;-85
2023/05/16 11:46:39;;;;;;;10.70;1.90;;;14.40;99.90;;;;;;5131003;27;20035;-85
2023/05/16 11:49:08;;;;;;;12.38;2.00;;;14.60;99.90;;;;;;5111387;27;20055;-86
2023/05/16 11:51:37;;;;;;;17.30;2.00;;;14.80;99.90;;;;;;5126886;27;20047;-84
2023/05/16 11:54:04;;;;;;;11.65;2.20;;;14.90;99.90;;;;;;5108920;27;20099;-85
2023/05/16 11:56:31;;;;;;;13.52;1.73;;;14.90;99.90;;;;;;5110428;27;20420;-85
2023/05/16 11:58:59;;;;;;;16.15;2.42;;;14.80;99.90;;;;;;5109381;27;20069;-84
2023/05/16 12:01:30;;;;;;;10.57;2.20;;;14.50;99.90;;;;;;5109647;27;20430;-84
2023/05/16 12:03:56;;;;;;;13.00;1.98;;;14.30;99.90;;;;;;5117965;27;20537;-85
2023/05/16 12:06:22;;;;;;;13.90;2.15;;;14.00;99.90;;;;;;5109230;27;20485;-84
2023/05/16 12:08:50;;;;;;;11.13;1.77;;;14.20;99.90;;;;;;5128362;27;20046;-84
2023/05/16 12:11:16;;;;;;;13.32;2.80;;;13.90;99.90;;;;;;5113247;27;20034;-84
2023/05/16 12:13:43;;;;;;;16.15;2.53;;;13.80;99.90;;;;;;5130741;27;20049;-84
2023/05/16 12:16:13;;;;;;;17.10;2.30;;;13.70;99.90;;;;;;5127455;27;20086;-85
2023/05/16 12:18:40;;;;;;;12.48;2.40;;;13.60;99.90;;;;;;5106726;27;20364;-84
2023/05/16 12:21:06;;;;;;;22.20;2.45;;;13.60;99.90;;;;;;5101393;27;20124;-84
2023/05/16 12:23:33;;;;;;;19.63;2.75;;;13.60;99.90;;;;;;5124651;27;20061;-85
2023/05/16 12:26:00;;;;;;;14.00;2.58;;;13.50;99.90;;;;;;5118497;27;20154;-84
2023/05/16 12:28:38;;;;;;;10.20;2.00;;;13.50;99.90;;;;;;5093402;27;20043;-84
2023/05/16 12:31:11;;;;;;;16.15;2.65;;;13.50;99.90;;;;;;5110939;27;20081;-84
2023/05/16 12:33:37;;;;;;;;;;;13.40;99.90;;;;;;5100949;27;20042;-84
2023/05/16 12:36:03;;;;;;;17.20;2.75;;;13.30;99.90;;;;;;5130532;27;19926;-84
2023/05/16 12:38:29;;;;;;;16.33;3.33;;;13.40;99.90;;;;;;5126628;27;20054;-84
2023/05/16 12:40:58;;;;;;;13.98;2.72;;;13.50;99.90;;;;;;5107154;27;20050;-84
2023/05/16 12:43:24;;;;;;;11.20;2.47;;;13.60;99.90;;;;;;5112578;27;20081;-84